PWSweather.com
Personal Weather Stations
Station Observations
ISYDDANM23
Felsted, AabenraaDK 6200

FelstedAabenraaDK 6200

Lat: 54.977066, Lon: 9.507192

Elevation: 135

Station Type: Davis Vantage Pro 2 Plus 24H

http://www.valkaer.dk

High Low Average
Temperature 57.7°F14.3°C 38.8°F3.8°C 47.8°F8.8°C
Dew Point 42.7°F5.9°C 28.9°F-1.7°C 35.7°F2.1°C
Winds 16.1 mph 25.9 kmh 2.3 mph 3.7 kmh 9.0 mph WNW14.5 kmh WNW
Wind Gusts 21.9 mph35.2 kmh 2.3 mph3.7 kmh 12.0 mph19.3 kmh
Humidity 86% 36% 65%
Pressure 30.58 in1035.6 mb 30.20 in1022.7 mb -
Precipitation 0.00 in0.0 mm - -
Hour Temp Dew Point Humidity Winds Wind Gusts Pressure Precip Precip Rate Daily Precip Total
12:00 AM 40.7°F4.8°C 35.6°F2.0°C 82% 3.5 mph WNW5.6 kmh WNW 6.9 mph11.1 kmh 30.20 in1022.7 mb - 0.00 in0.0 mm 0.00 in0.0 mm
12:10 AM 40.6°F4.8°C 35.5°F1.9°C 82% 4.6 mph WNW7.4 kmh WNW 4.6 mph7.4 kmh 30.20 in1022.7 mb - 0.00 in0.0 mm 0.00 in0.0 mm
12:15 AM 40.5°F4.7°C 35.4°F1.9°C 82% 3.5 mph W5.6 kmh W 5.8 mph9.3 kmh 30.21 in1023.0 mb - 0.00 in0.0 mm 0.00 in0.0 mm
12:20 AM 40.3°F4.6°C 35.3°F1.8°C 82% 2.3 mph W3.7 kmh W 2.3 mph3.7 kmh 30.21 in1023.0 mb - 0.00 in0.0 mm 0.00 in0.0 mm
12:25 AM 39.8°F4.3°C 34.8°F1.6°C 82% 3.5 mph W5.6 kmh W 5.8 mph9.3 kmh 30.21 in1023.0 mb - 0.00 in0.0 mm 0.00 in0.0 mm
12:30 AM 39.7°F4.3°C 35.0°F1.7°C 83% 2.3 mph W3.7 kmh W 3.5 mph5.6 kmh 30.21 in1023.0 mb - 0.00 in0.0 mm 0.00 in0.0 mm
12:35 AM 39.5°F4.2°C 34.7°F1.5°C 83% 2.3 mph W3.7 kmh W 5.8 mph9.3 kmh 30.21 in1023.0 mb - 0.00 in0.0 mm 0.00 in0.0 mm
12:40 AM 39.4°F4.1°C 35.0°F1.7°C 84% 3.5 mph W5.6 kmh W 3.5 mph5.6 kmh 30.21 in1023.0 mb - 0.00 in0.0 mm 0.00 in0.0 mm
12:45 AM 39.3°F4.1°C 34.8°F1.6°C 84% 3.5 mph W5.6 kmh W 5.8 mph9.3 kmh 30.21 in1023.0 mb - 0.00 in0.0 mm 0.00 in0.0 mm
12:50 AM 39.1°F3.9°C 34.7°F1.5°C 84% 2.3 mph W3.7 kmh W 3.5 mph5.6 kmh 30.21 in1023.0 mb - 0.00 in0.0 mm 0.00 in0.0 mm
12:55 AM 38.9°F3.8°C 34.5°F1.4°C 84% 2.3 mph W3.7 kmh W 5.8 mph9.3 kmh 30.21 in1023.0 mb - 0.00 in0.0 mm 0.00 in0.0 mm
01:00 AM 38.9°F3.8°C 34.5°F1.4°C 84% 4.6 mph W7.4 kmh W 6.9 mph11.1 kmh 30.21 in1023.0 mb - 0.00 in0.0 mm 0.00 in0.0 mm
01:10 AM 39.5°F4.2°C 35.1°F1.7°C 84% 4.6 mph W7.4 kmh W 6.9 mph11.1 kmh 30.21 in1023.0 mb - 0.00 in0.0 mm 0.00 in0.0 mm
01:15 AM 39.5°F4.2°C 35.1°F1.7°C 84% 4.6 mph W7.4 kmh W 8.1 mph13.0 kmh 30.22 in1023.4 mb - 0.00 in0.0 mm 0.00 in0.0 mm
01:20 AM 39.7°F4.3°C 35.3°F1.8°C 84% 5.8 mph WNW9.3 kmh WNW 8.1 mph13.0 kmh 30.21 in1023.0 mb - 0.00 in0.0 mm 0.00 in0.0 mm
01:25 AM 39.8°F4.3°C 35.4°F1.9°C 84% 3.5 mph W5.6 kmh W 6.9 mph11.1 kmh 30.21 in1023.0 mb - 0.00 in0.0 mm 0.00 in0.0 mm
01:30 AM 39.6°F4.2°C 35.2°F1.8°C 84% 4.6 mph WNW7.4 kmh WNW 9.2 mph14.8 kmh 30.22 in1023.4 mb - 0.00 in0.0 mm 0.00 in0.0 mm
01:35 AM 39.8°F4.3°C 35.3°F1.8°C 84% 5.8 mph WNW9.3 kmh WNW 9.2 mph14.8 kmh 30.21 in1023.0 mb - 0.00 in0.0 mm 0.00 in0.0 mm
01:40 AM 39.8°F4.3°C 35.4°F1.9°C 84% 5.8 mph WNW9.3 kmh WNW 9.2 mph14.8 kmh 30.21 in1023.0 mb - 0.00 in0.0 mm 0.00 in0.0 mm
01:45 AM 39.9°F4.4°C 35.5°F1.9°C 84% 5.8 mph WNW9.3 kmh WNW 5.8 mph9.3 kmh 30.21 in1023.0 mb - 0.00 in0.0 mm 0.00 in0.0 mm
01:50 AM 39.8°F4.3°C 35.4°F1.9°C 84% 5.8 mph NW9.3 kmh NW 6.9 mph11.1 kmh 30.22 in1023.4 mb - 0.00 in0.0 mm 0.00 in0.0 mm
01:55 AM 39.9°F4.4°C 35.4°F1.9°C 84% 5.8 mph WNW9.3 kmh WNW 9.2 mph14.8 kmh 30.22 in1023.4 mb - 0.00 in0.0 mm 0.00 in0.0 mm
02:00 AM 40.0°F4.4°C 35.6°F2.0°C 84% 6.9 mph WNW11.1 kmh WNW 9.2 mph14.8 kmh 30.22 in1023.4 mb - 0.00 in0.0 mm 0.00 in0.0 mm
02:10 AM 40.1°F4.5°C 35.3°F1.8°C 83% 4.6 mph WNW7.4 kmh WNW 6.9 mph11.1 kmh 30.23 in1023.7 mb - 0.00 in0.0 mm 0.00 in0.0 mm
02:15 AM 40.1°F4.5°C 35.4°F1.9°C 83% 4.6 mph W7.4 kmh W 8.1 mph13.0 kmh 30.23 in1023.7 mb - 0.00 in0.0 mm 0.00 in0.0 mm
02:20 AM 39.9°F4.4°C 35.2°F1.8°C 83% 4.6 mph W7.4 kmh W 8.1 mph13.0 kmh 30.23 in1023.7 mb - 0.00 in0.0 mm 0.00 in0.0 mm
02:25 AM 39.7°F4.3°C 35.0°F1.7°C 83% 4.6 mph W7.4 kmh W 8.1 mph13.0 kmh 30.23 in1023.7 mb - 0.00 in0.0 mm 0.00 in0.0 mm
02:30 AM 39.5°F4.2°C 35.1°F1.7°C 84% 4.6 mph WNW7.4 kmh WNW 4.6 mph7.4 kmh 30.23 in1023.7 mb - 0.00 in0.0 mm 0.00 in0.0 mm
02:35 AM 39.3°F4.1°C 34.9°F1.6°C 84% 4.6 mph WNW7.4 kmh WNW 5.8 mph9.3 kmh 30.23 in1023.7 mb - 0.00 in0.0 mm 0.00 in0.0 mm
02:40 AM 39.4°F4.1°C 34.9°F1.6°C 84% 4.6 mph WNW7.4 kmh WNW 5.8 mph9.3 kmh 30.23 in1023.7 mb - 0.00 in0.0 mm 0.00 in0.0 mm
02:45 AM 39.2°F4.0°C 34.8°F1.6°C 84% 4.6 mph WNW7.4 kmh WNW 4.6 mph7.4 kmh 30.23 in1023.7 mb - 0.00 in0.0 mm 0.00 in0.0 mm
02:50 AM 39.3°F4.1°C 35.2°F1.8°C 85% 5.8 mph W9.3 kmh W 6.9 mph11.1 kmh 30.23 in1023.7 mb - 0.00 in0.0 mm 0.00 in0.0 mm
02:55 AM 39.2°F4.0°C 34.8°F1.6°C 84% 3.5 mph W5.6 kmh W 3.5 mph5.6 kmh 30.23 in1023.7 mb - 0.00 in0.0 mm 0.00 in0.0 mm
03:00 AM 38.8°F3.8°C 34.4°F1.3°C 84% 4.6 mph W7.4 kmh W 5.8 mph9.3 kmh 30.24 in1024.0 mb - 0.00 in0.0 mm 0.00 in0.0 mm
03:10 AM 39.2°F4.0°C 35.0°F1.7°C 85% 3.5 mph WNW5.6 kmh WNW 5.8 mph9.3 kmh 30.24 in1024.0 mb - 0.00 in0.0 mm 0.00 in0.0 mm
03:15 AM 39.2°F4.0°C 35.1°F1.7°C 85% 5.8 mph WNW9.3 kmh WNW 6.9 mph11.1 kmh 30.25 in1024.4 mb - 0.00 in0.0 mm 0.00 in0.0 mm
03:20 AM 39.5°F4.2°C 35.4°F1.9°C 85% 5.8 mph WNW9.3 kmh WNW 8.1 mph13.0 kmh 30.25 in1024.4 mb - 0.00 in0.0 mm 0.00 in0.0 mm
03:25 AM 39.7°F4.3°C 35.6°F2.0°C 85% 5.8 mph WNW9.3 kmh WNW 8.1 mph13.0 kmh 30.25 in1024.4 mb - 0.00 in0.0 mm 0.00 in0.0 mm
03:30 AM 39.9°F4.4°C 35.5°F1.9°C 84% 6.9 mph WNW11.1 kmh WNW 10.4 mph16.7 kmh 30.25 in1024.4 mb - 0.00 in0.0 mm 0.00 in0.0 mm
03:35 AM 40.1°F4.5°C 35.7°F2.1°C 84% 6.9 mph WNW11.1 kmh WNW 11.5 mph18.5 kmh 30.26 in1024.7 mb - 0.00 in0.0 mm 0.00 in0.0 mm
03:40 AM 40.2°F4.6°C 35.8°F2.1°C 84% 5.8 mph WNW9.3 kmh WNW 9.2 mph14.8 kmh 30.26 in1024.7 mb - 0.00 in0.0 mm 0.00 in0.0 mm
03:45 AM 40.2°F4.6°C 35.8°F2.1°C 84% 5.8 mph WNW9.3 kmh WNW 8.1 mph13.0 kmh 30.26 in1024.7 mb - 0.00 in0.0 mm 0.00 in0.0 mm
03:50 AM 40.1°F4.5°C 35.7°F2.1°C 84% 5.8 mph WNW9.3 kmh WNW 8.1 mph13.0 kmh 30.27 in1025.1 mb - 0.00 in0.0 mm 0.00 in0.0 mm
03:55 AM 40.1°F4.5°C 35.6°F2.0°C 84% 4.6 mph WNW7.4 kmh WNW 8.1 mph13.0 kmh 30.27 in1025.1 mb - 0.00 in0.0 mm 0.00 in0.0 mm
04:00 AM 39.8°F4.3°C 35.4°F1.9°C 84% 3.5 mph W5.6 kmh W 6.9 mph11.1 kmh 30.27 in1025.1 mb - 0.00 in0.0 mm 0.00 in0.0 mm
04:10 AM 39.8°F4.3°C 35.6°F2.0°C 85% 4.6 mph WNW7.4 kmh WNW 6.9 mph11.1 kmh 30.27 in1025.1 mb - 0.00 in0.0 mm 0.00 in0.0 mm
04:15 AM 39.7°F4.3°C 35.2°F1.8°C 84% 5.8 mph WNW9.3 kmh WNW 8.1 mph13.0 kmh 30.27 in1025.1 mb - 0.00 in0.0 mm 0.00 in0.0 mm
04:20 AM 39.5°F4.2°C 35.4°F1.9°C 85% 4.6 mph WNW7.4 kmh WNW 9.2 mph14.8 kmh 30.27 in1025.1 mb - 0.00 in0.0 mm 0.00 in0.0 mm
04:25 AM 39.7°F4.3°C 35.5°F1.9°C 85% 4.6 mph WNW7.4 kmh WNW 6.9 mph11.1 kmh 30.27 in1025.1 mb - 0.00 in0.0 mm 0.00 in0.0 mm
04:30 AM 39.5°F4.2°C 35.4°F1.9°C 85% 6.9 mph WNW11.1 kmh WNW 6.9 mph11.1 kmh 30.28 in1025.4 mb - 0.00 in0.0 mm 0.00 in0.0 mm
04:35 AM 39.5°F4.2°C 35.4°F1.9°C 85% 5.8 mph WNW9.3 kmh WNW 9.2 mph14.8 kmh 30.28 in1025.4 mb - 0.00 in0.0 mm 0.00 in0.0 mm
04:40 AM 39.4°F4.1°C 35.3°F1.8°C 85% 6.9 mph NW11.1 kmh NW 8.1 mph13.0 kmh 30.28 in1025.4 mb - 0.00 in0.0 mm 0.00 in0.0 mm
04:45 AM 39.5°F4.2°C 35.4°F1.9°C 85% 3.5 mph WNW5.6 kmh WNW 4.6 mph7.4 kmh 30.28 in1025.4 mb - 0.00 in0.0 mm 0.00 in0.0 mm
04:50 AM 39.4°F4.1°C 35.6°F2.0°C 86% 5.8 mph WNW9.3 kmh WNW 9.2 mph14.8 kmh 30.28 in1025.4 mb - 0.00 in0.0 mm 0.00 in0.0 mm
04:55 AM 39.5°F4.2°C 35.7°F2.1°C 86% 3.5 mph WNW5.6 kmh WNW 4.6 mph7.4 kmh 30.29 in1025.7 mb - 0.00 in0.0 mm 0.00 in0.0 mm
05:00 AM 39.6°F4.2°C 35.7°F2.1°C 86% 5.8 mph WNW9.3 kmh WNW 6.9 mph11.1 kmh 30.29 in1025.7 mb - 0.00 in0.0 mm 0.00 in0.0 mm
05:10 AM 39.7°F4.3°C 35.6°F2.0°C 85% 4.6 mph WNW7.4 kmh WNW 5.8 mph9.3 kmh 30.29 in1025.7 mb - 0.00 in0.0 mm 0.00 in0.0 mm
05:15 AM 39.8°F4.3°C 35.9°F2.2°C 86% 4.6 mph WNW7.4 kmh WNW 5.8 mph9.3 kmh 30.29 in1025.7 mb - 0.00 in0.0 mm 0.00 in0.0 mm
05:20 AM 39.9°F4.4°C 35.8°F2.1°C 85% 4.6 mph W7.4 kmh W 6.9 mph11.1 kmh 30.29 in1025.7 mb - 0.00 in0.0 mm 0.00 in0.0 mm
05:25 AM 40.2°F4.6°C 36.1°F2.3°C 85% 4.6 mph W7.4 kmh W 5.8 mph9.3 kmh 30.30 in1026.1 mb - 0.00 in0.0 mm 0.00 in0.0 mm
05:30 AM 40.4°F4.7°C 36.2°F2.3°C 85% 4.6 mph W7.4 kmh W 6.9 mph11.1 kmh 30.30 in1026.1 mb - 0.00 in0.0 mm 0.00 in0.0 mm
05:35 AM 40.6°F4.8°C 36.5°F2.5°C 85% 4.6 mph WNW7.4 kmh WNW 5.8 mph9.3 kmh 30.30 in1026.1 mb - 0.00 in0.0 mm 0.00 in0.0 mm
05:40 AM 40.9°F4.9°C 36.8°F2.7°C 85% 5.8 mph WNW9.3 kmh WNW 8.1 mph13.0 kmh 30.30 in1026.1 mb - 0.00 in0.0 mm 0.00 in0.0 mm
05:45 AM 41.2°F5.1°C 37.1°F2.8°C 85% 4.6 mph WNW7.4 kmh WNW 5.8 mph9.3 kmh 30.31 in1026.4 mb - 0.00 in0.0 mm 0.00 in0.0 mm
05:50 AM 41.6°F5.3°C 37.1°F2.8°C 84% 5.8 mph WNW9.3 kmh WNW 8.1 mph13.0 kmh 30.31 in1026.4 mb - 0.00 in0.0 mm 0.00 in0.0 mm
05:55 AM 42.0°F5.6°C 37.5°F3.1°C 84% 5.8 mph NW9.3 kmh NW 11.5 mph18.5 kmh 30.31 in1026.4 mb - 0.00 in0.0 mm 0.00 in0.0 mm
06:00 AM 42.4°F5.8°C 37.6°F3.1°C 83% 9.2 mph WNW14.8 kmh WNW 11.5 mph18.5 kmh 30.31 in1026.4 mb - 0.00 in0.0 mm 0.00 in0.0 mm
06:10 AM 43.2°F6.2°C 38.0°F3.3°C 82% 10.4 mph NW16.7 kmh NW 12.7 mph20.4 kmh 30.32 in1026.8 mb - 0.00 in0.0 mm 0.00 in0.0 mm
06:15 AM 43.4°F6.3°C 38.0°F3.3°C 81% 8.1 mph NW13.0 kmh NW 11.5 mph18.5 kmh 30.31 in1026.4 mb - 0.00 in0.0 mm 0.00 in0.0 mm
06:20 AM 43.6°F6.4°C 38.4°F3.6°C 82% 5.8 mph WNW9.3 kmh WNW 10.4 mph16.7 kmh 30.31 in1026.4 mb - 0.00 in0.0 mm 0.00 in0.0 mm
06:25 AM 43.8°F6.6°C 38.3°F3.5°C 81% 6.9 mph WNW11.1 kmh WNW 9.2 mph14.8 kmh 30.31 in1026.4 mb - 0.00 in0.0 mm 0.00 in0.0 mm
06:30 AM 44.0°F6.7°C 38.5°F3.6°C 81% 8.1 mph WNW13.0 kmh WNW 10.4 mph16.7 kmh 30.32 in1026.8 mb - 0.00 in0.0 mm 0.00 in0.0 mm
06:35 AM 44.2°F6.8°C 38.7°F3.7°C 81% 5.8 mph NW9.3 kmh NW 6.9 mph11.1 kmh 30.32 in1026.8 mb - 0.00 in0.0 mm 0.00 in0.0 mm
06:40 AM 44.5°F6.9°C 38.7°F3.7°C 80% 6.9 mph WNW11.1 kmh WNW 6.9 mph11.1 kmh 30.32 in1026.8 mb - 0.00 in0.0 mm 0.00 in0.0 mm
06:45 AM 44.9°F7.2°C 38.8°F3.8°C 79% 9.2 mph NW14.8 kmh NW 12.7 mph20.4 kmh 30.32 in1026.8 mb - 0.00 in0.0 mm 0.00 in0.0 mm
06:50 AM 45.1°F7.3°C 38.7°F3.7°C 78% 5.8 mph WNW9.3 kmh WNW 6.9 mph11.1 kmh 30.32 in1026.8 mb - 0.00 in0.0 mm 0.00 in0.0 mm
06:55 AM 45.4°F7.4°C 38.9°F3.8°C 78% 8.1 mph NW13.0 kmh NW 12.7 mph20.4 kmh 30.33 in1027.1 mb - 0.00 in0.0 mm 0.00 in0.0 mm
07:00 AM 45.6°F7.6°C 38.5°F3.6°C 76% 10.4 mph NW16.7 kmh NW 17.3 mph27.8 kmh 30.33 in1027.1 mb - 0.00 in0.0 mm 0.00 in0.0 mm
07:10 AM 46.2°F7.9°C 39.0°F3.9°C 76% 8.1 mph NW13.0 kmh NW 11.5 mph18.5 kmh 30.33 in1027.1 mb - 0.00 in0.0 mm 0.00 in0.0 mm
07:15 AM 46.3°F7.9°C 38.5°F3.6°C 74% 11.5 mph WNW18.5 kmh WNW 17.3 mph27.8 kmh 30.33 in1027.1 mb - 0.00 in0.0 mm 0.00 in0.0 mm
07:20 AM 46.4°F8.0°C 38.6°F3.7°C 74% 11.5 mph WNW18.5 kmh WNW 15.0 mph24.1 kmh 30.34 in1027.4 mb - 0.00 in0.0 mm 0.00 in0.0 mm
07:25 AM 46.6°F8.1°C 38.4°F3.6°C 73% 12.7 mph NW20.4 kmh NW 18.4 mph29.6 kmh 30.34 in1027.4 mb - 0.00 in0.0 mm 0.00 in0.0 mm
07:30 AM 46.8°F8.2°C 38.6°F3.7°C 73% 12.7 mph NW20.4 kmh NW 18.4 mph29.6 kmh 30.34 in1027.4 mb - 0.00 in0.0 mm 0.00 in0.0 mm
07:35 AM 46.9°F8.3°C 38.7°F3.7°C 73% 9.2 mph NW14.8 kmh NW 13.8 mph22.2 kmh 30.34 in1027.4 mb - 0.00 in0.0 mm 0.00 in0.0 mm
07:40 AM 47.2°F8.4°C 38.3°F3.5°C 71% 12.7 mph WNW20.4 kmh WNW 13.8 mph22.2 kmh 30.34 in1027.4 mb - 0.00 in0.0 mm 0.00 in0.0 mm
07:45 AM 47.5°F8.6°C 39.3°F4.1°C 73% 8.1 mph NW13.0 kmh NW 10.4 mph16.7 kmh 30.34 in1027.4 mb - 0.00 in0.0 mm 0.00 in0.0 mm
07:50 AM 47.7°F8.7°C 38.8°F3.8°C 71% 8.1 mph NW13.0 kmh NW 11.5 mph18.5 kmh 30.34 in1027.4 mb - 0.00 in0.0 mm 0.00 in0.0 mm
07:55 AM 48.0°F8.9°C 38.7°F3.7°C 70% 10.4 mph NW16.7 kmh NW 13.8 mph22.2 kmh 30.34 in1027.4 mb - 0.00 in0.0 mm 0.00 in0.0 mm
08:00 AM 48.2°F9.0°C 38.9°F3.8°C 70% 8.1 mph NW13.0 kmh NW 16.1 mph25.9 kmh 30.34 in1027.4 mb - 0.00 in0.0 mm 0.00 in0.0 mm
08:10 AM 48.6°F9.2°C 39.6°F4.2°C 71% 9.2 mph WNW14.8 kmh WNW 16.1 mph25.9 kmh 30.34 in1027.4 mb - 0.00 in0.0 mm 0.00 in0.0 mm
08:15 AM 48.4°F9.1°C 39.0°F3.9°C 70% 10.4 mph W16.7 kmh W 15.0 mph24.1 kmh 30.35 in1027.8 mb - 0.00 in0.0 mm 0.00 in0.0 mm
08:20 AM 48.6°F9.2°C 38.9°F3.8°C 69% 10.4 mph W16.7 kmh W 19.6 mph31.5 kmh 30.35 in1027.8 mb - 0.00 in0.0 mm 0.00 in0.0 mm
08:25 AM 47.9°F8.8°C 38.2°F3.4°C 69% 11.5 mph NW18.5 kmh NW 16.1 mph25.9 kmh 30.35 in1027.8 mb - 0.00 in0.0 mm 0.00 in0.0 mm
08:30 AM 48.1°F8.9°C 38.8°F3.8°C 70% 9.2 mph W14.8 kmh W 13.8 mph22.2 kmh 30.35 in1027.8 mb - 0.00 in0.0 mm 0.00 in0.0 mm
08:35 AM 49.5°F9.7°C 39.7°F4.3°C 69% 11.5 mph NW18.5 kmh NW 16.1 mph25.9 kmh 30.36 in1028.1 mb - 0.00 in0.0 mm 0.00 in0.0 mm
08:40 AM 49.7°F9.8°C 39.2°F4.0°C 67% 9.2 mph WNW14.8 kmh WNW 11.5 mph18.5 kmh 30.36 in1028.1 mb - 0.00 in0.0 mm 0.00 in0.0 mm
08:45 AM 50.2°F10.1°C 39.6°F4.2°C 67% 8.1 mph NW13.0 kmh NW 12.7 mph20.4 kmh 30.36 in1028.1 mb - 0.00 in0.0 mm 0.00 in0.0 mm
08:50 AM 50.5°F10.3°C 39.2°F4.0°C 65% 10.4 mph NW16.7 kmh NW 12.7 mph20.4 kmh 30.36 in1028.1 mb - 0.00 in0.0 mm 0.00 in0.0 mm
08:55 AM 50.8°F10.4°C 39.8°F4.3°C 66% 11.5 mph WNW18.5 kmh WNW 16.1 mph25.9 kmh 30.36 in1028.1 mb - 0.00 in0.0 mm 0.00 in0.0 mm
09:00 AM 49.7°F9.8°C 40.0°F4.4°C 69% 9.2 mph W14.8 kmh W 11.5 mph18.5 kmh 30.36 in1028.1 mb - 0.00 in0.0 mm 0.00 in0.0 mm
09:10 AM 49.9°F9.9°C 39.4°F4.1°C 67% 11.5 mph W18.5 kmh W 16.1 mph25.9 kmh 30.36 in1028.1 mb - 0.00 in0.0 mm 0.00 in0.0 mm
09:15 AM 50.2°F10.1°C 39.7°F4.3°C 67% 10.4 mph NW16.7 kmh NW 15.0 mph24.1 kmh 30.36 in1028.1 mb - 0.00 in0.0 mm 0.00 in0.0 mm
09:20 AM 50.5°F10.3°C 40.4°F4.7°C 68% 9.2 mph WNW14.8 kmh WNW 12.7 mph20.4 kmh 30.36 in1028.1 mb - 0.00 in0.0 mm 0.00 in0.0 mm
09:25 AM 50.5°F10.3°C 39.1°F3.9°C 65% 12.7 mph WNW20.4 kmh WNW 18.4 mph29.6 kmh 30.36 in1028.1 mb - 0.00 in0.0 mm 0.00 in0.0 mm
09:30 AM 50.9°F10.5°C 39.1°F3.9°C 64% 11.5 mph WNW18.5 kmh WNW 12.7 mph20.4 kmh 30.36 in1028.1 mb - 0.00 in0.0 mm 0.00 in0.0 mm
09:35 AM 51.2°F10.7°C 38.6°F3.7°C 62% 9.2 mph NW14.8 kmh NW 15.0 mph24.1 kmh 30.36 in1028.1 mb - 0.00 in0.0 mm 0.00 in0.0 mm
09:40 AM 51.8°F11.0°C 38.3°F3.5°C 60% 10.4 mph NW16.7 kmh NW 13.8 mph22.2 kmh 30.36 in1028.1 mb - 0.00 in0.0 mm 0.00 in0.0 mm
09:45 AM 51.7°F10.9°C 37.9°F3.3°C 59% 11.5 mph NW18.5 kmh NW 12.7 mph20.4 kmh 30.37 in1028.4 mb - 0.00 in0.0 mm 0.00 in0.0 mm
09:50 AM 52.3°F11.3°C 40.5°F4.7°C 64% 6.9 mph WNW11.1 kmh WNW 11.5 mph18.5 kmh 30.36 in1028.1 mb - 0.00 in0.0 mm 0.00 in0.0 mm
09:55 AM 52.5°F11.4°C 39.4°F4.1°C 61% 8.1 mph NW13.0 kmh NW 12.7 mph20.4 kmh 30.37 in1028.4 mb - 0.00 in0.0 mm 0.00 in0.0 mm
10:00 AM 52.5°F11.4°C 38.6°F3.7°C 59% 12.7 mph WNW20.4 kmh WNW 18.4 mph29.6 kmh 30.37 in1028.4 mb - 0.00 in0.0 mm 0.00 in0.0 mm
10:10 AM 53.0°F11.7°C 39.0°F3.9°C 59% 10.4 mph NW16.7 kmh NW 11.5 mph18.5 kmh 30.37 in1028.4 mb - 0.00 in0.0 mm 0.00 in0.0 mm
10:15 AM 51.6°F10.9°C 38.6°F3.7°C 61% 10.4 mph W16.7 kmh W 12.7 mph20.4 kmh 30.37 in1028.4 mb - 0.00 in0.0 mm 0.00 in0.0 mm
10:20 AM 52.2°F11.2°C 38.3°F3.5°C 59% 11.5 mph W18.5 kmh W 16.1 mph25.9 kmh 30.37 in1028.4 mb - 0.00 in0.0 mm 0.00 in0.0 mm
10:25 AM 53.0°F11.7°C 39.1°F3.9°C 59% 10.4 mph NW16.7 kmh NW 12.7 mph20.4 kmh 30.37 in1028.4 mb - 0.00 in0.0 mm 0.00 in0.0 mm
10:30 AM 53.7°F12.1°C 40.6°F4.8°C 61% 11.5 mph NW18.5 kmh NW 15.0 mph24.1 kmh 30.37 in1028.4 mb - 0.00 in0.0 mm 0.00 in0.0 mm
10:35 AM 53.2°F11.8°C 38.8°F3.8°C 58% 13.8 mph WNW22.2 kmh WNW 19.6 mph31.5 kmh 30.38 in1028.8 mb - 0.00 in0.0 mm 0.00 in0.0 mm
10:40 AM 53.2°F11.8°C 38.8°F3.8°C 58% 8.1 mph NW13.0 kmh NW 10.4 mph16.7 kmh 30.38 in1028.8 mb - 0.00 in0.0 mm 0.00 in0.0 mm
10:45 AM 53.7°F12.1°C 39.3°F4.1°C 58% 10.4 mph NW16.7 kmh NW 13.8 mph22.2 kmh 30.38 in1028.8 mb - 0.00 in0.0 mm 0.00 in0.0 mm
10:50 AM 52.6°F11.4°C 38.7°F3.7°C 59% 9.2 mph NW14.8 kmh NW 18.4 mph29.6 kmh 30.38 in1028.8 mb - 0.00 in0.0 mm 0.00 in0.0 mm
10:55 AM 52.8°F11.6°C 38.8°F3.8°C 59% 9.2 mph NW14.8 kmh NW 11.5 mph18.5 kmh 30.38 in1028.8 mb - 0.00 in0.0 mm 0.00 in0.0 mm
11:00 AM 53.9°F12.2°C 40.4°F4.7°C 60% 9.2 mph W14.8 kmh W 12.7 mph20.4 kmh 30.38 in1028.8 mb - 0.00 in0.0 mm 0.00 in0.0 mm
11:10 AM 54.2°F12.3°C 39.3°F4.1°C 57% 9.2 mph WNW14.8 kmh WNW 12.7 mph20.4 kmh 30.39 in1029.1 mb - 0.00 in0.0 mm 0.00 in0.0 mm
11:15 AM 54.0°F12.2°C 39.5°F4.2°C 58% 11.5 mph WNW18.5 kmh WNW 12.7 mph20.4 kmh 30.38 in1028.8 mb - 0.00 in0.0 mm 0.00 in0.0 mm
11:20 AM 55.1°F12.8°C 40.6°F4.8°C 58% 10.4 mph W16.7 kmh W 18.4 mph29.6 kmh 30.39 in1029.1 mb - 0.00 in0.0 mm 0.00 in0.0 mm
11:25 AM 54.3°F12.4°C 40.3°F4.6°C 59% 10.4 mph WNW16.7 kmh WNW 15.0 mph24.1 kmh 30.39 in1029.1 mb - 0.00 in0.0 mm 0.00 in0.0 mm
11:30 AM 55.0°F12.8°C 42.2°F5.7°C 62% 10.4 mph WNW16.7 kmh WNW 11.5 mph18.5 kmh 30.39 in1029.1 mb - 0.00 in0.0 mm 0.00 in0.0 mm
11:35 AM 54.5°F12.5°C 40.9°F4.9°C 60% 10.4 mph NW16.7 kmh NW 11.5 mph18.5 kmh 30.39 in1029.1 mb - 0.00 in0.0 mm 0.00 in0.0 mm
11:40 AM 53.7°F12.1°C 40.1°F4.5°C 60% 11.5 mph WNW18.5 kmh WNW 16.1 mph25.9 kmh 30.39 in1029.1 mb - 0.00 in0.0 mm 0.00 in0.0 mm
11:45 AM 54.7°F12.6°C 40.6°F4.8°C 59% 10.4 mph WNW16.7 kmh WNW 12.7 mph20.4 kmh 30.39 in1029.1 mb - 0.00 in0.0 mm 0.00 in0.0 mm
11:50 AM 54.6°F12.6°C 40.1°F4.5°C 58% 10.4 mph WNW16.7 kmh WNW 11.5 mph18.5 kmh 30.39 in1029.1 mb - 0.00 in0.0 mm 0.00 in0.0 mm
11:55 AM 54.8°F12.7°C 41.2°F5.1°C 60% 11.5 mph W18.5 kmh W 19.6 mph31.5 kmh 30.39 in1029.1 mb - 0.00 in0.0 mm 0.00 in0.0 mm
12:00 PM 54.7°F12.6°C 41.9°F5.5°C 62% 9.2 mph NW14.8 kmh NW 17.3 mph27.8 kmh 30.39 in1029.1 mb - 0.00 in0.0 mm 0.00 in0.0 mm
12:10 PM 54.9°F12.7°C 41.3°F5.2°C 60% 10.4 mph W16.7 kmh W 19.6 mph31.5 kmh 30.40 in1029.5 mb - 0.00 in0.0 mm 0.00 in0.0 mm
12:15 PM 55.6°F13.1°C 42.7°F5.9°C 62% 10.4 mph W16.7 kmh W 18.4 mph29.6 kmh 30.40 in1029.5 mb - 0.00 in0.0 mm 0.00 in0.0 mm
12:20 PM 55.6°F13.1°C 41.9°F5.5°C 60% 10.4 mph WNW16.7 kmh WNW 17.3 mph27.8 kmh 30.40 in1029.5 mb - 0.00 in0.0 mm 0.00 in0.0 mm
12:25 PM 55.3°F12.9°C 40.3°F4.6°C 57% 12.7 mph WNW20.4 kmh WNW 19.6 mph31.5 kmh 30.40 in1029.5 mb - 0.00 in0.0 mm 0.00 in0.0 mm
12:30 PM 55.7°F13.2°C 40.7°F4.8°C 57% 12.7 mph NW20.4 kmh NW 16.1 mph25.9 kmh 30.41 in1029.8 mb - 0.00 in0.0 mm 0.00 in0.0 mm
12:35 PM 55.9°F13.3°C 41.4°F5.2°C 58% 8.1 mph WNW13.0 kmh WNW 19.6 mph31.5 kmh 30.40 in1029.5 mb - 0.00 in0.0 mm 0.00 in0.0 mm
12:40 PM 56.4°F13.6°C 40.9°F4.9°C 56% 9.2 mph NW14.8 kmh NW 15.0 mph24.1 kmh 30.41 in1029.8 mb - 0.00 in0.0 mm 0.00 in0.0 mm
12:45 PM 57.3°F14.1°C 41.7°F5.4°C 56% 10.4 mph WNW16.7 kmh WNW 15.0 mph24.1 kmh 30.41 in1029.8 mb - 0.00 in0.0 mm 0.00 in0.0 mm
12:50 PM 56.3°F13.5°C 40.8°F4.9°C 56% 10.4 mph W16.7 kmh W 17.3 mph27.8 kmh 30.41 in1029.8 mb - 0.00 in0.0 mm 0.00 in0.0 mm
12:55 PM 56.7°F13.7°C 39.7°F4.3°C 53% 8.1 mph NW13.0 kmh NW 11.5 mph18.5 kmh 30.41 in1029.8 mb - 0.00 in0.0 mm 0.00 in0.0 mm
01:00 PM 56.4°F13.6°C 39.9°F4.4°C 54% 11.5 mph WNW18.5 kmh WNW 19.6 mph31.5 kmh 30.41 in1029.8 mb - 0.00 in0.0 mm 0.00 in0.0 mm
01:10 PM 57.1°F13.9°C 37.0°F2.8°C 47% 10.4 mph WNW16.7 kmh WNW 15.0 mph24.1 kmh 30.41 in1029.8 mb - 0.00 in0.0 mm 0.00 in0.0 mm
01:15 PM 57.5°F14.2°C 39.5°F4.2°C 51% 8.1 mph NNW13.0 kmh NNW 12.7 mph20.4 kmh 30.41 in1029.8 mb - 0.00 in0.0 mm 0.00 in0.0 mm
01:20 PM 57.0°F13.9°C 37.5°F3.1°C 48% 10.4 mph NW16.7 kmh NW 12.7 mph20.4 kmh 30.41 in1029.8 mb - 0.00 in0.0 mm 0.00 in0.0 mm
01:25 PM 56.7°F13.7°C 38.8°F3.8°C 51% 13.8 mph WNW22.2 kmh WNW 17.3 mph27.8 kmh 30.41 in1029.8 mb - 0.00 in0.0 mm 0.00 in0.0 mm
01:30 PM 56.9°F13.8°C 33.4°F0.8°C 41% 13.8 mph NW22.2 kmh NW 18.4 mph29.6 kmh 30.42 in1030.1 mb - 0.00 in0.0 mm 0.00 in0.0 mm
01:35 PM 56.6°F13.7°C 35.5°F1.9°C 45% 9.2 mph NW14.8 kmh NW 11.5 mph18.5 kmh 30.41 in1029.8 mb - 0.00 in0.0 mm 0.00 in0.0 mm
01:40 PM 56.9°F13.8°C 32.8°F0.4°C 40% 9.2 mph NW14.8 kmh NW 15.0 mph24.1 kmh 30.42 in1030.1 mb - 0.00 in0.0 mm 0.00 in0.0 mm
01:45 PM 57.2°F14.0°C 34.9°F1.6°C 43% 12.7 mph NW20.4 kmh NW 17.3 mph27.8 kmh 30.42 in1030.1 mb - 0.00 in0.0 mm 0.00 in0.0 mm
01:50 PM 57.4°F14.1°C 35.6°F2.0°C 44% 15.0 mph NW24.1 kmh NW 19.6 mph31.5 kmh 30.42 in1030.1 mb - 0.00 in0.0 mm 0.00 in0.0 mm
01:55 PM 57.1°F13.9°C 34.8°F1.6°C 43% 12.7 mph NW20.4 kmh NW 16.1 mph25.9 kmh 30.42 in1030.1 mb - 0.00 in0.0 mm 0.00 in0.0 mm
02:00 PM 57.4°F14.1°C 34.5°F1.4°C 42% 10.4 mph NW16.7 kmh NW 12.7 mph20.4 kmh 30.42 in1030.1 mb - 0.00 in0.0 mm 0.00 in0.0 mm
02:10 PM 57.2°F14.0°C 33.1°F0.6°C 40% 13.8 mph NW22.2 kmh NW 19.6 mph31.5 kmh 30.42 in1030.1 mb - 0.00 in0.0 mm 0.00 in0.0 mm
02:15 PM 57.7°F14.3°C 32.8°F0.4°C 39% 10.4 mph NNW16.7 kmh NNW 15.0 mph24.1 kmh 30.42 in1030.1 mb - 0.00 in0.0 mm 0.00 in0.0 mm
02:20 PM 57.7°F14.3°C 34.1°F1.2°C 41% 9.2 mph NNW14.8 kmh NNW 16.1 mph25.9 kmh 30.43 in1030.5 mb - 0.00 in0.0 mm 0.00 in0.0 mm
02:25 PM 57.2°F14.0°C 34.3°F1.3°C 42% 11.5 mph NW18.5 kmh NW 18.4 mph29.6 kmh 30.42 in1030.1 mb - 0.00 in0.0 mm 0.00 in0.0 mm
02:30 PM 57.3°F14.1°C 31.8°F-0.1°C 38% 16.1 mph NW25.9 kmh NW 19.6 mph31.5 kmh 30.43 in1030.5 mb - 0.00 in0.0 mm 0.00 in0.0 mm
02:35 PM 57.5°F14.2°C 32.7°F0.4°C 39% 12.7 mph NW20.4 kmh NW 19.6 mph31.5 kmh 30.43 in1030.5 mb - 0.00 in0.0 mm 0.00 in0.0 mm
02:40 PM 57.0°F13.9°C 31.6°F-0.2°C 38% 11.5 mph NW18.5 kmh NW 19.6 mph31.5 kmh 30.44 in1030.8 mb - 0.00 in0.0 mm 0.00 in0.0 mm
02:45 PM 57.5°F14.2°C 35.7°F2.1°C 44% 9.2 mph NW14.8 kmh NW 17.3 mph27.8 kmh 30.44 in1030.8 mb - 0.00 in0.0 mm 0.00 in0.0 mm
02:50 PM 57.1°F13.9°C 33.0°F0.6°C 40% 11.5 mph NW18.5 kmh NW 17.3 mph27.8 kmh 30.44 in1030.8 mb - 0.00 in0.0 mm 0.00 in0.0 mm
02:55 PM 57.3°F14.1°C 33.8°F1.0°C 41% 15.0 mph W24.1 kmh W 19.6 mph31.5 kmh 30.44 in1030.8 mb - 0.00 in0.0 mm 0.00 in0.0 mm
03:00 PM 56.8°F13.8°C 34.0°F1.1°C 42% 12.7 mph WNW20.4 kmh WNW 17.3 mph27.8 kmh 30.44 in1030.8 mb - 0.00 in0.0 mm 0.00 in0.0 mm
03:10 PM 56.9°F13.8°C 33.4°F0.8°C 41% 12.7 mph WNW20.4 kmh WNW 13.8 mph22.2 kmh 30.45 in1031.2 mb - 0.00 in0.0 mm 0.00 in0.0 mm
03:15 PM 57.0°F13.9°C 36.4°F2.4°C 46% 8.1 mph NW13.0 kmh NW 11.5 mph18.5 kmh 30.45 in1031.2 mb - 0.00 in0.0 mm 0.00 in0.0 mm
03:20 PM 57.6°F14.2°C 34.1°F1.2°C 41% 8.1 mph N13.0 kmh N 17.3 mph27.8 kmh 30.44 in1030.8 mb - 0.00 in0.0 mm 0.00 in0.0 mm
03:25 PM 57.3°F14.1°C 34.4°F1.3°C 42% 12.7 mph WNW20.4 kmh WNW 21.9 mph35.2 kmh 30.44 in1030.8 mb - 0.00 in0.0 mm 0.00 in0.0 mm
03:30 PM 56.9°F13.8°C 34.0°F1.1°C 42% 15.0 mph WNW24.1 kmh WNW 19.6 mph31.5 kmh 30.45 in1031.2 mb - 0.00 in0.0 mm 0.00 in0.0 mm
03:35 PM 57.2°F14.0°C 35.5°F1.9°C 44% 8.1 mph NNW13.0 kmh NNW 10.4 mph16.7 kmh 30.45 in1031.2 mb - 0.00 in0.0 mm 0.00 in0.0 mm
03:40 PM 57.3°F14.1°C 33.8°F1.0°C 41% 10.4 mph NW16.7 kmh NW 20.7 mph33.3 kmh 30.45 in1031.2 mb - 0.00 in0.0 mm 0.00 in0.0 mm
03:45 PM 56.8°F13.8°C 32.1°F0.1°C 39% 9.2 mph N14.8 kmh N 15.0 mph24.1 kmh 30.45 in1031.2 mb - 0.00 in0.0 mm 0.00 in0.0 mm
03:50 PM 56.9°F13.8°C 30.2°F-1.0°C 36% 12.7 mph NW20.4 kmh NW 18.4 mph29.6 kmh 30.45 in1031.2 mb - 0.00 in0.0 mm 0.00 in0.0 mm
03:55 PM 56.6°F13.7°C 30.6°F-0.8°C 37% 12.7 mph NW20.4 kmh NW 19.6 mph31.5 kmh 30.45 in1031.2 mb - 0.00 in0.0 mm 0.00 in0.0 mm
04:00 PM 56.1°F13.4°C 30.8°F-0.7°C 38% 11.5 mph NNW18.5 kmh NNW 17.3 mph27.8 kmh 30.45 in1031.2 mb - 0.00 in0.0 mm 0.00 in0.0 mm
04:10 PM 56.0°F13.3°C 31.4°F-0.3°C 39% 13.8 mph NW22.2 kmh NW 17.3 mph27.8 kmh 30.46 in1031.5 mb - 0.00 in0.0 mm 0.00 in0.0 mm
04:15 PM 55.7°F13.2°C 31.1°F-0.5°C 39% 11.5 mph NNW18.5 kmh NNW 17.3 mph27.8 kmh 30.46 in1031.5 mb - 0.00 in0.0 mm 0.00 in0.0 mm
04:20 PM 55.7°F13.2°C 30.4°F-0.9°C 38% 12.7 mph NNW20.4 kmh NNW 20.7 mph33.3 kmh 30.46 in1031.5 mb - 0.00 in0.0 mm 0.00 in0.0 mm
04:25 PM 55.4°F13.0°C 32.1°F0.1°C 41% 9.2 mph NW14.8 kmh NW 13.8 mph22.2 kmh 30.47 in1031.8 mb - 0.00 in0.0 mm 0.00 in0.0 mm
04:30 PM 55.6°F13.1°C 31.6°F-0.2°C 40% 10.4 mph NW16.7 kmh NW 13.8 mph22.2 kmh 30.47 in1031.8 mb - 0.00 in0.0 mm 0.00 in0.0 mm
04:35 PM 55.7°F13.2°C 32.3°F0.2°C 41% 11.5 mph NNW18.5 kmh NNW 18.4 mph29.6 kmh 30.47 in1031.8 mb - 0.00 in0.0 mm 0.00 in0.0 mm
04:40 PM 55.2°F12.9°C 29.3°F-1.5°C 37% 15.0 mph WNW24.1 kmh WNW 17.3 mph27.8 kmh 30.47 in1031.8 mb - 0.00 in0.0 mm 0.00 in0.0 mm
04:45 PM 55.0°F12.8°C 30.4°F-0.9°C 39% 10.4 mph NW16.7 kmh NW 18.4 mph29.6 kmh 30.47 in1031.8 mb - 0.00 in0.0 mm 0.00 in0.0 mm
04:50 PM 55.0°F12.8°C 30.5°F-0.8°C 39% 10.4 mph NW16.7 kmh NW 13.8 mph22.2 kmh 30.48 in1032.2 mb - 0.00 in0.0 mm 0.00 in0.0 mm
04:55 PM 54.7°F12.6°C 28.9°F-1.7°C 37% 13.8 mph NW22.2 kmh NW 20.7 mph33.3 kmh 30.48 in1032.2 mb - 0.00 in0.0 mm 0.00 in0.0 mm
05:00 PM 54.7°F12.6°C 29.6°F-1.3°C 38% 11.5 mph NW18.5 kmh NW 13.8 mph22.2 kmh 30.48 in1032.2 mb - 0.00 in0.0 mm 0.00 in0.0 mm
05:10 PM 54.2°F12.3°C 29.1°F-1.6°C 38% 11.5 mph WNW18.5 kmh WNW 13.8 mph22.2 kmh 30.48 in1032.2 mb - 0.00 in0.0 mm 0.00 in0.0 mm
05:15 PM 54.2°F12.3°C 30.4°F-0.9°C 40% 12.7 mph NW20.4 kmh NW 13.8 mph22.2 kmh 30.48 in1032.2 mb - 0.00 in0.0 mm 0.00 in0.0 mm
05:20 PM 54.1°F12.3°C 31.5°F-0.3°C 42% 9.2 mph NW14.8 kmh NW 10.4 mph16.7 kmh 30.49 in1032.5 mb - 0.00 in0.0 mm 0.00 in0.0 mm
05:25 PM 54.2°F12.3°C 31.0°F-0.6°C 41% 13.8 mph NW22.2 kmh NW 19.6 mph31.5 kmh 30.49 in1032.5 mb - 0.00 in0.0 mm 0.00 in0.0 mm
05:30 PM 53.6°F12.0°C 31.1°F-0.5°C 42% 12.7 mph WNW20.4 kmh WNW 16.1 mph25.9 kmh 30.49 in1032.5 mb - 0.00 in0.0 mm 0.00 in0.0 mm
05:35 PM 53.9°F12.2°C 30.7°F-0.7°C 41% 11.5 mph NW18.5 kmh NW 15.0 mph24.1 kmh 30.49 in1032.5 mb - 0.00 in0.0 mm 0.00 in0.0 mm
05:40 PM 53.6°F12.0°C 32.2°F0.1°C 44% 11.5 mph NW18.5 kmh NW 17.3 mph27.8 kmh 30.50 in1032.8 mb - 0.00 in0.0 mm 0.00 in0.0 mm
05:45 PM 53.8°F12.1°C 32.9°F0.5°C 45% 8.1 mph NW13.0 kmh NW 17.3 mph27.8 kmh 30.49 in1032.5 mb - 0.00 in0.0 mm 0.00 in0.0 mm
05:50 PM 53.3°F11.8°C 34.1°F1.2°C 48% 9.2 mph NW14.8 kmh NW 13.8 mph22.2 kmh 30.50 in1032.8 mb - 0.00 in0.0 mm 0.00 in0.0 mm
05:55 PM 53.1°F11.7°C 31.7°F-0.2°C 44% 12.7 mph NW20.4 kmh NW 16.1 mph25.9 kmh 30.50 in1032.8 mb - 0.00 in0.0 mm 0.00 in0.0 mm
06:00 PM 52.9°F11.6°C 32.1°F0.1°C 45% 10.4 mph NW16.7 kmh NW 12.7 mph20.4 kmh 30.49 in1032.5 mb - 0.00 in0.0 mm 0.00 in0.0 mm
06:10 PM 52.9°F11.6°C 32.1°F0.1°C 45% 10.4 mph WNW16.7 kmh WNW 19.6 mph31.5 kmh 30.50 in1032.8 mb - 0.00 in0.0 mm 0.00 in0.0 mm
06:15 PM 52.4°F11.3°C 32.2°F0.1°C 46% 9.2 mph NW14.8 kmh NW 9.2 mph14.8 kmh 30.50 in1032.8 mb - 0.00 in0.0 mm 0.00 in0.0 mm
06:20 PM 52.2°F11.2°C 32.1°F0.1°C 46% 13.8 mph NW22.2 kmh NW 19.6 mph31.5 kmh 30.50 in1032.8 mb - 0.00 in0.0 mm 0.00 in0.0 mm
06:25 PM 52.1°F11.2°C 32.5°F0.3°C 47% 9.2 mph NW14.8 kmh NW 12.7 mph20.4 kmh 30.50 in1032.8 mb - 0.00 in0.0 mm 0.00 in0.0 mm
06:30 PM 52.0°F11.1°C 32.4°F0.2°C 47% 11.5 mph NW18.5 kmh NW 17.3 mph27.8 kmh 30.51 in1033.2 mb - 0.00 in0.0 mm 0.00 in0.0 mm
06:35 PM 51.7°F10.9°C 32.7°F0.4°C 48% 11.5 mph NW18.5 kmh NW 15.0 mph24.1 kmh 30.51 in1033.2 mb - 0.00 in0.0 mm 0.00 in0.0 mm
06:40 PM 51.5°F10.8°C 33.0°F0.6°C 49% 11.5 mph NW18.5 kmh NW 12.7 mph20.4 kmh 30.51 in1033.2 mb - 0.00 in0.0 mm 0.00 in0.0 mm
06:45 PM 51.3°F10.7°C 32.8°F0.4°C 49% 11.5 mph NW18.5 kmh NW 18.4 mph29.6 kmh 30.51 in1033.2 mb - 0.00 in0.0 mm 0.00 in0.0 mm
06:50 PM 51.1°F10.6°C 32.6°F0.3°C 49% 12.7 mph NW20.4 kmh NW 16.1 mph25.9 kmh 30.52 in1033.5 mb - 0.00 in0.0 mm 0.00 in0.0 mm
06:55 PM 50.9°F10.5°C 31.9°F-0.1°C 48% 10.4 mph NW16.7 kmh NW 18.4 mph29.6 kmh 30.52 in1033.5 mb - 0.00 in0.0 mm 0.00 in0.0 mm
07:00 PM 50.7°F10.4°C 33.2°F0.7°C 51% 13.8 mph NW22.2 kmh NW 17.3 mph27.8 kmh 30.52 in1033.5 mb - 0.00 in0.0 mm 0.00 in0.0 mm
07:10 PM 50.1°F10.1°C 32.7°F0.4°C 51% 11.5 mph WNW18.5 kmh WNW 13.8 mph22.2 kmh 30.52 in1033.5 mb - 0.00 in0.0 mm 0.00 in0.0 mm
07:15 PM 49.9°F9.9°C 33.4°F0.8°C 53% 13.8 mph NW22.2 kmh NW 20.7 mph33.3 kmh 30.52 in1033.5 mb - 0.00 in0.0 mm 0.00 in0.0 mm
07:20 PM 49.7°F9.8°C 32.8°F0.4°C 52% 13.8 mph WNW22.2 kmh WNW 19.6 mph31.5 kmh 30.52 in1033.5 mb - 0.00 in0.0 mm 0.00 in0.0 mm
07:25 PM 49.5°F9.7°C 33.1°F0.6°C 53% 9.2 mph NW14.8 kmh NW 11.5 mph18.5 kmh 30.52 in1033.5 mb - 0.00 in0.0 mm 0.00 in0.0 mm
07:30 PM 49.2°F9.6°C 32.3°F0.2°C 52% 10.4 mph WNW16.7 kmh WNW 13.8 mph22.2 kmh 30.52 in1033.5 mb - 0.00 in0.0 mm 0.00 in0.0 mm
07:35 PM 48.9°F9.4°C 32.5°F0.3°C 53% 8.1 mph NW13.0 kmh NW 12.7 mph20.4 kmh 30.52 in1033.5 mb - 0.00 in0.0 mm 0.00 in0.0 mm
07:40 PM 48.6°F9.2°C 32.2°F0.1°C 53% 10.4 mph NW16.7 kmh NW 11.5 mph18.5 kmh 30.53 in1033.9 mb - 0.00 in0.0 mm 0.00 in0.0 mm
07:45 PM 48.5°F9.2°C 32.6°F0.3°C 54% 9.2 mph NW14.8 kmh NW 13.8 mph22.2 kmh 30.53 in1033.9 mb - 0.00 in0.0 mm 0.00 in0.0 mm
07:50 PM 48.1°F8.9°C 32.7°F0.4°C 55% 12.7 mph NW20.4 kmh NW 13.8 mph22.2 kmh 30.53 in1033.9 mb - 0.00 in0.0 mm 0.00 in0.0 mm
07:55 PM 48.0°F8.9°C 33.1°F0.6°C 56% 11.5 mph NW18.5 kmh NW 15.0 mph24.1 kmh 30.53 in1033.9 mb - 0.00 in0.0 mm 0.00 in0.0 mm
08:00 PM 47.8°F8.8°C 33.8°F1.0°C 58% 11.5 mph NW18.5 kmh NW 16.1 mph25.9 kmh 30.53 in1033.9 mb - 0.00 in0.0 mm 0.00 in0.0 mm
08:10 PM 47.2°F8.4°C 34.0°F1.1°C 60% 11.5 mph NW18.5 kmh NW 17.3 mph27.8 kmh 30.54 in1034.2 mb - 0.00 in0.0 mm 0.00 in0.0 mm
08:15 PM 46.9°F8.3°C 34.6°F1.4°C 62% 6.9 mph NW11.1 kmh NW 13.8 mph22.2 kmh 30.54 in1034.2 mb - 0.00 in0.0 mm 0.00 in0.0 mm
08:20 PM 46.6°F8.1°C 34.7°F1.5°C 63% 8.1 mph NW13.0 kmh NW 11.5 mph18.5 kmh 30.54 in1034.2 mb - 0.00 in0.0 mm 0.00 in0.0 mm
08:25 PM 46.3°F7.9°C 34.8°F1.6°C 64% 11.5 mph WNW18.5 kmh WNW 13.8 mph22.2 kmh 30.54 in1034.2 mb - 0.00 in0.0 mm 0.00 in0.0 mm
08:30 PM 46.1°F7.8°C 34.6°F1.4°C 64% 10.4 mph NW16.7 kmh NW 11.5 mph18.5 kmh 30.54 in1034.2 mb - 0.00 in0.0 mm 0.00 in0.0 mm
08:35 PM 46.0°F7.8°C 34.9°F1.6°C 65% 9.2 mph NW14.8 kmh NW 11.5 mph18.5 kmh 30.54 in1034.2 mb - 0.00 in0.0 mm 0.00 in0.0 mm
08:40 PM 45.8°F7.7°C 34.7°F1.5°C 65% 12.7 mph NW20.4 kmh NW 19.6 mph31.5 kmh 30.54 in1034.2 mb - 0.00 in0.0 mm 0.00 in0.0 mm
08:45 PM 45.7°F7.6°C 34.6°F1.4°C 65% 10.4 mph NW16.7 kmh NW 12.7 mph20.4 kmh 30.54 in1034.2 mb - 0.00 in0.0 mm 0.00 in0.0 mm
08:50 PM 45.5°F7.5°C 34.8°F1.6°C 66% 6.9 mph NW11.1 kmh NW 10.4 mph16.7 kmh 30.55 in1034.5 mb - 0.00 in0.0 mm 0.00 in0.0 mm
08:55 PM 45.4°F7.4°C 34.7°F1.5°C 66% 8.1 mph NW13.0 kmh NW 11.5 mph18.5 kmh 30.54 in1034.2 mb - 0.00 in0.0 mm 0.00 in0.0 mm
09:00 PM 45.3°F7.4°C 34.6°F1.4°C 66% 10.4 mph NW16.7 kmh NW 11.5 mph18.5 kmh 30.55 in1034.5 mb - 0.00 in0.0 mm 0.00 in0.0 mm
09:10 PM 44.9°F7.2°C 35.0°F1.7°C 68% 10.4 mph NW16.7 kmh NW 11.5 mph18.5 kmh 30.55 in1034.5 mb - 0.00 in0.0 mm 0.00 in0.0 mm
09:15 PM 44.8°F7.1°C 35.3°F1.8°C 69% 8.1 mph NW13.0 kmh NW 11.5 mph18.5 kmh 30.55 in1034.5 mb - 0.00 in0.0 mm 0.00 in0.0 mm
09:20 PM 44.6°F7.0°C 35.1°F1.7°C 69% 5.8 mph WNW9.3 kmh WNW 9.2 mph14.8 kmh 30.55 in1034.5 mb - 0.00 in0.0 mm 0.00 in0.0 mm
09:25 PM 44.1°F6.7°C 35.0°F1.7°C 70% 6.9 mph WNW11.1 kmh WNW 9.2 mph14.8 kmh 30.55 in1034.5 mb - 0.00 in0.0 mm 0.00 in0.0 mm
09:30 PM 43.7°F6.5°C 34.9°F1.6°C 71% 6.9 mph WNW11.1 kmh WNW 9.2 mph14.8 kmh 30.55 in1034.5 mb - 0.00 in0.0 mm 0.00 in0.0 mm
09:35 PM 43.6°F6.4°C 35.1°F1.7°C 72% 6.9 mph WNW11.1 kmh WNW 10.4 mph16.7 kmh 30.56 in1034.9 mb - 0.00 in0.0 mm 0.00 in0.0 mm
09:40 PM 43.2°F6.2°C 34.8°F1.6°C 72% 6.9 mph WNW11.1 kmh WNW 10.4 mph16.7 kmh 30.55 in1034.5 mb - 0.00 in0.0 mm 0.00 in0.0 mm
09:45 PM 42.9°F6.1°C 34.9°F1.6°C 73% 5.8 mph WNW9.3 kmh WNW 11.5 mph18.5 kmh 30.55 in1034.5 mb - 0.00 in0.0 mm 0.00 in0.0 mm
09:50 PM 43.0°F6.1°C 34.9°F1.6°C 73% 8.1 mph NW13.0 kmh NW 11.5 mph18.5 kmh 30.55 in1034.5 mb - 0.00 in0.0 mm 0.00 in0.0 mm
09:55 PM 43.0°F6.1°C 34.9°F1.6°C 73% 6.9 mph WNW11.1 kmh WNW 10.4 mph16.7 kmh 30.56 in1034.9 mb - 0.00 in0.0 mm 0.00 in0.0 mm
10:00 PM 42.9°F6.1°C 35.2°F1.8°C 74% 5.8 mph WNW9.3 kmh WNW 6.9 mph11.1 kmh 30.56 in1034.9 mb - 0.00 in0.0 mm 0.00 in0.0 mm
10:10 PM 42.1°F5.6°C 34.8°F1.6°C 75% 3.5 mph WNW5.6 kmh WNW 6.9 mph11.1 kmh 30.56 in1034.9 mb - 0.00 in0.0 mm 0.00 in0.0 mm
10:15 PM 41.9°F5.5°C 34.6°F1.4°C 75% 5.8 mph WNW9.3 kmh WNW 8.1 mph13.0 kmh 30.56 in1034.9 mb - 0.00 in0.0 mm 0.00 in0.0 mm
10:20 PM 41.8°F5.4°C 34.5°F1.4°C 75% 5.8 mph WNW9.3 kmh WNW 8.1 mph13.0 kmh 30.56 in1034.9 mb - 0.00 in0.0 mm 0.00 in0.0 mm
10:25 PM 41.6°F5.3°C 34.6°F1.4°C 76% 5.8 mph WNW9.3 kmh WNW 8.1 mph13.0 kmh 30.56 in1034.9 mb - 0.00 in0.0 mm 0.00 in0.0 mm
10:30 PM 41.4°F5.2°C 34.4°F1.3°C 76% 3.5 mph WNW5.6 kmh WNW 6.9 mph11.1 kmh 30.57 in1035.2 mb - 0.00 in0.0 mm 0.00 in0.0 mm
10:35 PM 41.2°F5.1°C 34.5°F1.4°C 77% 5.8 mph WNW9.3 kmh WNW 9.2 mph14.8 kmh 30.57 in1035.2 mb - 0.00 in0.0 mm 0.00 in0.0 mm
10:40 PM 41.1°F5.1°C 34.4°F1.3°C 77% 5.8 mph WNW9.3 kmh WNW 6.9 mph11.1 kmh 30.57 in1035.2 mb - 0.00 in0.0 mm 0.00 in0.0 mm
10:45 PM 41.1°F5.1°C 34.5°F1.4°C 77% 5.8 mph WNW9.3 kmh WNW 8.1 mph13.0 kmh 30.57 in1035.2 mb - 0.00 in0.0 mm 0.00 in0.0 mm
10:50 PM 41.2°F5.1°C 34.5°F1.4°C 77% 6.9 mph WNW11.1 kmh WNW 9.2 mph14.8 kmh 30.57 in1035.2 mb - 0.00 in0.0 mm 0.00 in0.0 mm
10:55 PM 41.0°F5.0°C 34.4°F1.3°C 77% 4.6 mph WNW7.4 kmh WNW 6.9 mph11.1 kmh 30.57 in1035.2 mb - 0.00 in0.0 mm 0.00 in0.0 mm
11:00 PM 40.7°F4.8°C 34.4°F1.3°C 78% 5.8 mph WNW9.3 kmh WNW 8.1 mph13.0 kmh 30.57 in1035.2 mb - 0.00 in0.0 mm 0.00 in0.0 mm
11:10 PM 40.7°F4.8°C 34.4°F1.3°C 78% 4.6 mph WNW7.4 kmh WNW 8.1 mph13.0 kmh 30.57 in1035.2 mb - 0.00 in0.0 mm 0.00 in0.0 mm
11:15 PM 40.7°F4.8°C 34.4°F1.3°C 78% 4.6 mph WNW7.4 kmh WNW 4.6 mph7.4 kmh 30.57 in1035.2 mb - 0.00 in0.0 mm 0.00 in0.0 mm
11:20 PM 40.7°F4.8°C 34.4°F1.3°C 78% 4.6 mph WNW7.4 kmh WNW 8.1 mph13.0 kmh 30.57 in1035.2 mb - 0.00 in0.0 mm 0.00 in0.0 mm
11:25 PM 40.9°F4.9°C 34.6°F1.4°C 78% 5.8 mph WNW9.3 kmh WNW 9.2 mph14.8 kmh 30.57 in1035.2 mb - 0.00 in0.0 mm 0.00 in0.0 mm
11:30 PM 40.9°F4.9°C 34.6°F1.4°C 78% 5.8 mph WNW9.3 kmh WNW 8.1 mph13.0 kmh 30.57 in1035.2 mb - 0.00 in0.0 mm 0.00 in0.0 mm
11:35 PM 40.9°F4.9°C 34.6°F1.4°C 78% 6.9 mph WNW11.1 kmh WNW 8.1 mph13.0 kmh 30.57 in1035.2 mb - 0.00 in0.0 mm 0.00 in0.0 mm
11:40 PM 41.0°F5.0°C 34.3°F1.3°C 77% 4.6 mph WNW7.4 kmh WNW 5.8 mph9.3 kmh 30.58 in1035.6 mb - 0.00 in0.0 mm 0.00 in0.0 mm
11:45 PM 40.8°F4.9°C 34.2°F1.2°C 77% 5.8 mph W9.3 kmh W 8.1 mph13.0 kmh 30.58 in1035.6 mb - 0.00 in0.0 mm 0.00 in0.0 mm
11:50 PM 40.8°F4.9°C 34.2°F1.2°C 77% 5.8 mph WNW9.3 kmh WNW 9.2 mph14.8 kmh 30.58 in1035.6 mb - 0.00 in0.0 mm 0.00 in0.0 mm
11:55 PM 40.7°F4.8°C 34.4°F1.3°C 78% 5.8 mph W9.3 kmh W 8.1 mph13.0 kmh 30.58 in1035.6 mb - 0.00 in0.0 mm 0.00 in0.0 mm